Time;durP1;ratioP1;P1;durP2;ratioP2;P2;SDS_P1;SDS_P2;PMS_P1;PMS_P2;Temp;Humidity;BMP_temperature;BMP_pressure;BME280_temperature;BME280_humidity;BME280_pressure;Samples;Min_cycle;Max_cycle;Signal;HPM_P1;HPM_P2
2022/04/18 00:00:07;;;;;;;21.15;7.57;;;;;;;2.41;44.39;100415.25;4758931;30;20070;-81
2022/04/18 00:02:36;;;;;;;19.60;7.22;;;;;;;1.60;44.21;100285.81;4762754;30;20051;-81
2022/04/18 00:05:02;;;;;;;16.58;6.10;;;;;;;2.12;43.88;100386.88;4762636;30;20052;-81
2022/04/18 00:07:29;;;;;;;12.00;5.07;;;;;;;1.75;44.49;100342.81;4752959;30;21035;-80
2022/04/18 00:09:56;;;;;;;8.82;3.38;;;;;;;2.26;44.69;100411.31;4763470;30;20090;-83
2022/04/18 00:12:22;;;;;;;5.35;2.70;;;;;;;2.02;44.23;100380.53;4764757;30;20156;-80
2022/04/18 00:14:48;;;;;;;6.65;2.33;;;;;;;1.83;44.56;100334.50;4761425;30;20063;-81
2022/04/18 00:17:13;;;;;;;4.85;2.00;;;;;;;1.79;44.38;100342.09;4773916;30;20149;-82
2022/04/18 00:19:41;;;;;;;3.63;1.90;;;;;;;1.62;44.36;100315.81;4764461;30;20068;-80
2022/04/18 00:22:07;;;;;;;3.15;2.08;;;;;;;2.18;44.42;100417.00;4753415;30;20051;-82
2022/04/18 00:24:33;;;;;;;4.43;1.80;;;;;;;1.85;44.35;100376.50;4762862;30;20505;-80
2022/04/18 00:27:01;;;;;;;4.35;1.88;;;;;;;2.06;44.93;100408.06;4748553;30;20047;-81
2022/04/18 00:29:27;;;;;;;3.65;1.88;;;;;;;1.71;44.67;100351.19;4766382;30;20109;-81
2022/04/18 00:31:52;;;;;;;3.30;2.05;;;;;;;2.05;44.50;100413.13;4763209;30;20127;-83
2022/04/18 00:34:18;;;;;;;3.58;2.00;;;;;;;1.86;44.78;100394.50;4749925;30;20465;-83
2022/04/18 00:36:45;;;;;;;5.03;2.95;;;;;;;1.93;44.48;100390.47;4749767;30;20047;-81
2022/04/18 00:39:11;;;;;;;3.05;1.60;;;;;;;2.03;45.05;100412.19;4767044;30;20638;-80
2022/04/18 00:41:38;;;;;;;6.07;2.22;;;;;;;1.68;44.54;100363.06;4751985;30;20055;-82
2022/04/18 00:44:05;;;;;;;3.72;1.90;;;;;;;1.88;44.79;100402.25;4753083;30;20047;-81
2022/04/18 00:46:30;;;;;;;3.22;1.95;;;;;;;1.55;45.49;100347.19;4765511;30;20761;-80
2022/04/18 00:48:57;;;;;;;2.88;1.90;;;;;;;1.73;45.33;100392.34;4767475;30;20189;-82
2022/04/18 00:51:26;;;;;;;3.55;2.00;;;;;;;1.20;45.36;100303.19;4762373;30;20571;-83
2022/04/18 00:53:55;;;;;;;3.65;1.80;;;;;;;1.42;45.36;100345.00;4749501;30;20059;-83
2022/04/18 00:56:23;;;;;;;4.95;2.05;;;;;;;1.74;45.79;100399.22;4767694;30;20048;-78
2022/04/18 00:58:50;;;;;;;5.38;2.22;;;;;;;1.47;45.69;100358.88;4739221;30;20052;-82
2022/04/18 01:01:17;;;;;;;5.35;2.20;;;;;;;1.79;45.47;100419.09;4740056;30;20079;-81
2022/04/18 01:03:45;;;;;;;4.63;2.05;;;;;;;1.64;46.04;100382.59;4756147;30;20054;-82
2022/04/18 01:06:14;;;;;;;5.63;2.10;;;;;;;1.82;45.48;100423.44;4755995;30;20047;-81
2022/04/18 01:08:41;;;;;;;4.97;2.60;;;;;;;1.68;46.07;100383.59;4773927;29;20044;-82
2022/04/18 01:11:09;;;;;;;4.63;2.22;;;;;;;1.66;45.90;100378.38;4770357;30;20054;-80
2022/04/18 01:13:54;;;;;;;3.47;2.00;;;;;;;1.79;46.22;100405.38;4765535;30;20541;-82
2022/04/18 01:16:39;;;;;;;7.47;2.50;;;;;;;1.40;46.12;100344.06;4769396;30;20048;-82
2022/04/18 01:19:31;;;;;;;7.25;2.28;;;;;;;1.09;46.01;100299.38;4741816;30;20485;-82
2022/04/18 01:22:22;;;;;;;4.10;2.00;;;;;;;1.74;46.01;100386.38;4764010;30;20098;-81
2022/04/18 01:30:41;;;;;;;4.88;1.90;;;;;;;1.52;46.19;100354.81;4752962;30;20078;-80
2022/04/18 01:33:09;;;;;;;4.70;1.90;;;;;;;1.10;46.02;100313.94;4786606;29;20050;-84
2022/04/18 01:35:36;;;;;;;4.63;2.13;;;;;;;1.52;46.22;100390.72;4777704;30;20115;-81
2022/04/18 01:38:04;;;;;;;7.18;2.88;;;;;;;1.55;46.49;100400.22;4769387;30;20508;-82
2022/04/18 01:40:30;;;;;;;6.03;2.15;;;;;;;0.91;46.02;100290.13;4725627;30;20055;-81
2022/04/18 01:42:56;;;;;;;4.65;2.03;;;;;;;0.99;45.90;100299.00;4764459;30;20134;-82
2022/04/18 01:45:22;;;;;;;5.95;2.13;;;;;;;1.21;45.59;100338.28;4749831;30;20051;-82
2022/04/18 01:48:00;;;;;;;5.03;2.17;;;;;;;1.04;45.93;100317.13;4766296;30;20048;-80
2022/04/18 01:50:27;;;;;;;5.45;2.58;;;;;;;1.13;46.64;100334.53;4748690;30;20047;-80
2022/04/18 01:52:54;;;;;;;4.15;2.17;;;;;;;1.38;46.24;100382.50;4746593;30;20143;-81
2022/04/18 01:55:20;;;;;;;4.53;2.20;;;;;;;1.45;45.97;100414.38;4751716;30;20525;-80
2022/04/18 01:57:52;;;;;;;3.58;2.20;;;;;;;0.68;46.31;100271.34;4747615;30;20066;-80
2022/04/18 02:00:18;;;;;;;9.50;2.20;;;;;;;1.52;46.56;100398.41;4752672;30;20623;-82
2022/04/18 02:02:45;;;;;;;3.63;2.50;;;;;;;1.07;46.45;100331.75;4748135;30;20086;-82
2022/04/18 02:05:11;;;;;;;4.75;2.20;;;;;;;0.75;46.07;100284.44;4768623;30;20075;-81
2022/04/18 02:07:45;;;;;;;5.05;2.50;;;;;;;1.23;46.40;100369.97;4763417;30;20069;-84
2022/04/18 02:10:13;;;;;;;6.93;2.30;;;;;;;1.42;45.99;100404.00;4750070;30;20063;-84
2022/04/18 02:12:39;;;;;;;5.45;2.17;;;;;;;1.10;46.51;100366.06;4753458;30;20044;-81
2022/04/18 02:15:07;;;;;;;4.43;2.38;;;;;;;1.34;46.96;100396.03;4769674;30;20293;-81
2022/04/18 02:17:42;;;;;;;4.40;2.30;;;;;;;0.94;46.11;100331.28;4770128;30;20075;-81
2022/04/18 02:20:09;;;;;;;3.95;2.25;;;;;;;1.19;46.75;100379.25;4752687;30;20043;-83
2022/04/18 02:22:35;;;;;;;5.65;2.20;;;;;;;1.36;46.11;100407.22;4765963;30;20044;-83
2022/04/18 02:25:02;;;;;;;4.35;2.00;;;;;;;1.24;47.08;100391.34;4738559;30;20523;-83
2022/04/18 02:27:29;;;;;;;5.95;2.88;;;;;;;1.14;46.53;100373.06;4776285;30;20130;-81
2022/04/18 02:29:55;;;;;;;6.40;3.05;;;;;;;0.73;47.11;100296.31;4777433;30;20079;-84
2022/04/18 02:35:07;;;;;;;4.20;1.88;;;;;;;1.45;47.08;100407.56;4765172;30;20039;-83
2022/04/18 02:37:33;;;;;;;5.43;2.20;;;;;;;0.89;47.13;100320.84;4763792;30;20480;-82
2022/04/18 02:39:59;;;;;;;7.68;2.50;;;;;;;0.96;46.33;100311.69;4765306;30;20175;-83
2022/04/18 02:42:29;;;;;;;6.45;2.72;;;;;;;0.95;46.62;100321.91;4762789;30;20044;-83
2022/04/18 02:44:55;;;;;;;8.45;2.90;;;;;;;1.33;46.92;100368.63;4763770;30;20048;-83
2022/04/18 02:47:41;;;;;;;7.07;2.72;;;;;;;1.03;46.48;100326.50;4761919;30;20621;-82
2022/04/18 02:50:08;;;;;;;8.88;2.58;;;;;;;1.37;47.08;100367.94;4762624;30;20516;-83
2022/04/18 02:52:35;;;;;;;4.95;2.65;;;;;;;1.63;46.80;100419.34;4768818;30;20400;-81
2022/04/18 02:55:01;;;;;;;6.70;2.50;;;;;;;1.20;46.59;100345.09;4735370;30;20496;-82
2022/04/18 02:57:27;;;;;;;5.60;2.53;;;;;;;1.67;47.01;100397.22;4774253;30;20511;-81
2022/04/18 02:59:53;;;;;;;6.13;4.28;;;;;;;1.56;46.87;100373.75;4774470;30;20127;-82
2022/04/18 03:02:19;;;;;;;7.50;3.95;;;;;;;1.23;47.23;100307.53;4769723;30;20416;-82
2022/04/18 03:04:45;;;;;;;7.32;3.10;;;;;;;1.23;47.04;100299.84;4750933;30;20066;-83
2022/04/18 03:07:11;;;;;;;7.07;3.45;;;;;;;0.59;46.67;100185.63;4748171;30;20144;-81
2022/04/18 03:09:37;;;;;;;10.98;4.85;;;;;;;0.80;46.78;100225.66;4760282;29;20063;-81
2022/04/18 03:12:03;;;;;;;9.00;3.20;;;;;;;1.61;46.73;100332.03;4785929;29;20044;-82
2022/04/18 03:14:29;;;;;;;5.88;2.72;;;;;;;1.61;46.74;100316.66;4779285;29;20131;-82
2022/04/18 03:17:01;;;;;;;10.07;2.92;;;;;;;1.91;46.82;100357.06;4763207;30;20039;-82
2022/04/18 03:19:28;;;;;;;6.57;3.22;;;;;;;2.18;46.93;100391.34;4763129;30;20052;-81
2022/04/18 03:21:59;;;;;;;4.40;2.63;;;;;;;1.73;46.34;100298.25;4765471;30;20061;-83
2022/04/18 03:24:25;;;;;;;6.55;2.88;;;;;;;2.04;46.44;100340.38;4762895;30;20070;-82
2022/04/18 03:27:09;;;;;;;6.72;2.63;;;;;;;2.37;46.75;100383.44;4749335;30;20107;-83
2022/04/18 03:29:37;;;;;;;13.98;3.17;;;;;;;1.67;46.90;100248.41;4764746;30;20062;-82
2022/04/18 03:32:05;;;;;;;5.80;3.20;;;;;;;2.61;46.50;100385.06;4748975;30;20063;-80
2022/04/18 03:34:33;;;;;;;6.82;3.30;;;;;;;2.33;46.56;100343.03;4748381;30;20055;-81
2022/04/18 03:39:51;;;;;;;8.02;3.20;;;;;;;2.88;46.25;100366.22;4750246;30;20051;-81
2022/04/18 03:42:29;;;;;;;4.80;3.28;;;;;;;2.58;46.08;100295.03;4770505;30;20549;-82
2022/04/18 03:45:02;;;;;;;4.38;2.60;;;;;;;2.99;46.27;100344.28;4755188;30;20158;-82
2022/04/18 03:47:30;;;;;;;6.53;2.63;;;;;;;2.98;45.65;100324.53;4771693;29;20210;-82
2022/04/18 03:49:57;;;;;;;5.70;2.90;;;;;;;2.99;45.55;100304.84;4755055;30;20043;-81
2022/04/18 03:52:24;;;;;;;9.15;3.00;;;;;;;3.44;46.11;100331.88;4764246;30;20194;-81
2022/04/18 03:54:52;;;;;;;10.00;4.53;;;;;;;3.33;45.36;100292.09;4759848;30;20115;-81
2022/04/18 03:57:23;;;;;;;6.53;3.10;;;;;;;3.62;45.45;100300.63;4776916;30;20082;-81
2022/04/18 03:59:57;;;;;;;5.80;2.75;;;;;;;4.22;44.98;100366.63;4761212;30;20047;-82
2022/04/18 04:02:25;;;;;;;7.35;2.70;;;;;;;3.73;44.99;100249.44;4764866;30;20073;-82
2022/04/18 04:04:54;;;;;;;6.10;2.75;;;;;;;4.75;44.62;100387.66;4734413;30;20040;-82
2022/04/18 04:07:22;;;;;;;5.43;2.60;;;;;;;4.55;44.69;100313.31;4774591;30;20068;-81
2022/04/18 04:10:02;;;;;;;6.50;2.90;;;;;;;4.77;44.41;100313.81;4782613;30;20064;-81
2022/04/18 04:12:35;;;;;;;9.27;3.58;;;;;;;4.91;43.72;100296.06;4788842;29;20068;-81
2022/04/18 04:15:20;;;;;;;4.40;2.67;;;;;;;5.24;43.74;100305.34;4786415;30;20087;-83
2022/04/18 04:17:58;;;;;;;4.85;2.63;;;;;;;5.79;43.70;100364.13;4776046;30;20074;-80
2022/04/18 04:20:24;;;;;;;4.70;2.60;;;;;;;5.62;43.39;100306.97;4789848;30;20039;-82
2022/04/18 04:22:51;;;;;;;5.18;2.70;;;;;;;6.22;42.99;100371.84;4748830;30;21127;-81
2022/04/18 04:25:42;;;;;;;9.45;3.75;;;;;;;6.11;42.96;100304.44;4767710;30;20059;-81
2022/04/18 04:28:12;;;;;;;9.10;3.55;;;;;;;6.77;41.99;100369.31;4766067;30;20497;-81
2022/04/18 04:30:39;;;;;;;7.03;3.80;;;;;;;6.84;42.63;100345.28;4767491;30;20134;-80
2022/04/18 04:33:06;;;;;;;6.00;3.47;;;;;;;6.88;41.75;100336.72;4768983;30;20043;-82
2022/04/18 04:35:33;;;;;;;8.45;3.58;;;;;;;6.51;42.62;100287.00;4751153;30;20055;-81
2022/04/18 04:38:06;;;;;;;6.20;3.15;;;;;;;6.92;41.59;100320.41;4771001;30;20084;-79
2022/04/18 04:40:53;;;;;;;7.57;3.53;;;;;;;6.67;41.88;100236.41;4758470;30;20151;-81
2022/04/18 04:43:33;;;;;;;7.47;2.90;;;;;;;7.06;41.99;100275.72;4770201;30;20059;-81
2022/04/18 04:46:03;;;;;;;5.70;3.60;;;;;;;7.68;41.83;100320.50;4766316;30;20055;-80
2022/04/18 04:48:33;;;;;;;7.50;3.30;;;;;;;8.14;41.42;100354.66;4770513;29;20107;-82
2022/04/18 04:51:07;;;;;;;9.30;3.92;;;;;;;7.98;41.20;100309.56;4773279;30;20542;-79
2022/04/18 04:53:49;;;;;;;6.18;3.60;;;;;;;8.43;41.13;100351.47;4751649;30;20052;-80
2022/04/18 04:56:26;;;;;;;8.82;3.80;;;;;;;8.46;40.46;100340.25;4765912;30;20044;-81
2022/04/18 04:58:54;;;;;;;9.02;3.83;;;;;;;8.14;40.23;100333.94;4764698;30;20083;-80
2022/04/18 05:01:23;;;;;;;8.15;4.10;;;;;;;8.07;41.19;100342.50;4767806;30;20476;-82
2022/04/18 05:03:54;;;;;;;7.63;4.00;;;;;;;8.37;41.09;100328.09;4765498;30;20051;-81
2022/04/18 05:06:21;;;;;;;6.05;4.28;;;;;;;8.67;40.86;100328.34;4763443;30;20048;-80
2022/04/18 05:08:48;;;;;;;6.03;3.80;;;;;;;9.01;40.53;100347.59;4771044;29;20048;-82
2022/04/18 05:11:15;;;;;;;8.90;4.60;;;;;;;9.42;40.61;100332.22;4752612;30;20054;-82
2022/04/18 05:14:05;;;;;;;12.60;7.00;;;;;;;10.12;39.81;100338.50;4754232;30;20332;-83
2022/04/18 05:16:39;;;;;;;9.95;6.72;;;;;;;11.65;39.14;100313.13;4766661;30;20105;-82
2022/04/18 05:19:25;;;;;;;14.38;5.57;;;;;;;13.87;37.39;100317.16;4742378;30;20069;-81
2022/04/18 05:22:05;;;;;;;8.48;5.57;;;;;;;15.96;34.93;100313.34;4751836;30;20093;-78
2022/04/18 05:24:34;;;;;;;10.43;4.38;;;;;;;17.88;32.80;100298.59;4752298;30;20607;-80
2022/04/18 05:27:02;;;;;;;5.40;3.88;;;;;;;19.50;29.93;100281.66;4753245;30;20089;-83
2022/04/18 05:29:28;;;;;;;6.28;3.85;;;;;;;20.77;29.29;100292.41;4764265;30;20058;-81
2022/04/18 05:31:54;;;;;;;6.95;3.58;;;;;;;22.08;27.34;100297.88;4763045;30;20082;-80
2022/04/18 05:34:21;;;;;;;7.13;3.92;;;;;;;22.69;25.23;100290.47;4763195;30;20405;-82
2022/04/18 05:37:04;;;;;;;4.88;3.40;;;;;;;23.35;25.16;100237.47;4752603;30;20051;-82
2022/04/18 05:39:52;;;;;;;6.60;3.25;;;;;;;24.45;23.10;100265.81;4764791;30;20055;-82
2022/04/18 05:42:23;;;;;;;5.55;3.10;;;;;;;24.93;22.97;100252.28;4766754;30;20122;-81
2022/04/18 05:44:51;;;;;;;4.97;3.22;;;;;;;25.50;22.08;100292.28;4763972;30;20776;-83
2022/04/18 05:47:20;;;;;;;4.97;3.63;;;;;;;25.86;21.10;100182.47;4751943;30;20120;-82
2022/04/18 05:49:46;;;;;;;6.82;4.10;;;;;;;26.82;18.84;100284.50;4755918;30;20157;-79
2022/04/18 05:52:15;;;;;;;7.55;3.67;;;;;;;26.05;19.66;100290.50;4752540;30;20043;-80
2022/04/18 05:54:43;;;;;;;5.90;3.60;;;;;;;26.01;19.80;100262.34;4769590;30;20040;-80
2022/04/18 05:57:53;;;;;;;6.40;2.78;;;;;;;27.20;18.75;100293.47;4770480;30;20052;-83
2022/04/18 06:00:36;;;;;;;6.00;2.50;;;;;;;27.86;17.91;100274.47;4749048;30;20060;-80
2022/04/18 06:03:08;;;;;;;5.07;2.65;;;;;;;27.63;18.27;100294.88;4749287;30;20138;-79
2022/04/18 06:05:34;;;;;;;6.15;3.20;;;;;;;27.69;17.10;100274.88;4763215;30;20059;-81
2022/04/18 06:08:19;;;;;;;4.25;2.17;;;;;;;28.09;16.86;100299.50;4750913;30;20134;-84
2022/04/18 06:10:59;;;;;;;2.95;2.10;;;;;;;27.61;17.02;100233.53;4762951;30;20133;-82
2022/04/18 06:13:51;;;;;;;4.35;2.05;;;;;;;28.24;16.65;100256.56;4735198;30;20865;-82
2022/04/18 06:16:17;;;;;;;4.85;2.40;;;;;;;28.05;15.61;100227.63;4766877;30;20413;-82
2022/04/18 06:18:46;;;;;;;3.15;1.95;;;;;;;27.27;15.97;100251.97;4742012;30;20076;-83
2022/04/18 06:21:13;;;;;;;2.47;2.00;;;;;;;27.89;16.43;100231.47;4735411;30;20213;-82
2022/04/18 06:23:41;;;;;;;6.15;2.33;;;;;;;28.50;15.97;100235.81;4768970;30;20048;-83
2022/04/18 06:26:26;;;;;;;4.95;2.17;;;;;;;29.07;15.34;100286.72;4785092;30;20066;-80
2022/04/18 06:28:53;;;;;;;3.83;1.90;;;;;;;28.41;14.75;100268.63;4770979;30;20831;-82
2022/04/18 06:31:20;;;;;;;2.67;1.90;;;;;;;27.01;16.30;100209.31;4775254;30;20052;-83
2022/04/18 06:33:56;;;;;;;4.13;2.17;;;;;;;26.60;15.28;100119.66;4762696;30;20508;-84
2022/04/18 06:36:25;;;;;;;4.07;2.10;;;;;;;26.46;14.86;100220.22;4750321;30;20131;-86
2022/04/18 06:39:04;;;;;;;3.83;2.60;;;;;;;26.54;16.05;100202.84;4764709;30;20051;-80
2022/04/18 06:41:31;;;;;;;4.63;3.20;;;;;;;28.40;15.13;100256.22;4749615;30;20543;-79
2022/04/18 06:44:00;;;;;;;3.58;2.20;;;;;;;29.85;14.86;100270.66;4763150;30;20130;-79
2022/04/18 06:46:30;;;;;;;3.65;1.85;;;;;;;29.58;14.35;100255.03;4753797;30;20048;-81
2022/04/18 06:49:03;;;;;;;3.55;1.67;;;;;;;30.11;14.01;100210.50;4749482;30;20139;-80
2022/04/18 06:51:52;;;;;;;3.33;1.92;;;;;;;30.73;13.57;100261.63;4747575;30;20051;-80
2022/04/18 06:55:00;;;;;;;2.17;1.60;;;;;;;30.75;13.68;100271.22;4750555;30;20042;-81
2022/04/18 06:57:29;;;;;;;3.97;2.05;;;;;;;28.76;12.95;100182.09;4757472;30;20536;-84
2022/04/18 06:59:57;;;;;;;3.33;2.10;;;;;;;28.38;13.99;100279.53;4769820;30;20104;-85
2022/04/18 07:02:26;;;;;;;4.45;2.53;;;;;;;28.33;13.50;100287.09;4772900;30;20100;-81
2022/04/18 07:04:53;;;;;;;3.63;2.17;;;;;;;28.67;13.98;100263.06;4771447;30;20043;-82
2022/04/18 07:07:19;;;;;;;2.72;1.95;;;;;;;28.95;13.80;100212.75;4789120;30;20071;-83
2022/04/18 07:09:46;;;;;;;4.55;1.98;;;;;;;28.89;13.42;100191.81;4791370;29;20055;-83
2022/04/18 07:12:22;;;;;;;4.88;2.22;;;;;;;29.39;13.10;100188.69;4763045;30;20047;-86
2022/04/18 07:14:50;;;;;;;2.65;1.75;;;;;;;29.83;12.66;100218.16;4766361;30;20100;-83
2022/04/18 07:17:18;;;;;;;3.50;2.78;;;;;;;30.57;12.47;100256.72;4744961;30;20160;-80
2022/04/18 07:19:45;;;;;;;9.07;2.78;;;;;;;30.65;12.41;100267.66;4760965;30;20047;-81
2022/04/18 07:22:22;;;;;;;6.03;2.80;;;;;;;30.20;12.89;100266.03;4745653;30;20143;-81
2022/04/18 07:24:55;;;;;;;5.05;3.45;;;;;;;29.29;12.54;100111.75;4748804;30;20085;-81
2022/04/18 07:27:22;;;;;;;1.90;1.70;;;;;;;30.72;12.19;100238.44;4751109;30;20051;-81
2022/04/18 07:30:00;;;;;;;3.50;1.95;;;;;;;30.48;12.32;100199.28;4747873;30;20082;-79
2022/04/18 07:32:35;;;;;;;5.18;2.80;;;;;;;29.81;12.88;100273.75;4752773;30;20047;-82
2022/04/18 07:35:09;;;;;;;5.28;2.00;;;;;;;29.20;11.96;100147.31;4766336;30;20036;-80
2022/04/18 07:40:49;;;;;;;;;;;;;;;;;;;;;
2022/04/18 07:43:26;;;;;;;3.95;2.13;;;;;;;28.71;12.92;100216.34;4769810;29;20051;-82
2022/04/18 07:45:58;;;;;;;2.97;1.88;;;;;;;28.03;12.02;100277.69;4753573;30;20044;-80
2022/04/18 07:48:55;;;;;;;3.83;1.92;;;;;;;27.36;12.78;100287.88;4771716;30;20150;-82
2022/04/18 07:52:12;;;;;;;;;;;;;;;;;;;;;
2022/04/18 07:55:19;;;;;;;3.45;1.70;;;;;;;26.71;12.94;100186.50;4749842;30;20127;-82
2022/04/18 07:57:45;;;;;;;4.30;1.88;;;;;;;26.88;13.55;100181.78;4766910;30;20505;-82
2022/04/18 08:00:29;;;;;;;9.48;2.35;;;;;;;26.32;12.82;100180.31;4774255;30;20052;-82
2022/04/18 08:03:05;;;;;;;4.35;1.80;;;;;;;27.33;13.86;100256.88;4772980;30;20064;-81
2022/04/18 08:05:56;;;;;;;4.30;1.95;;;;;;;27.92;13.24;100174.25;4746156;30;20051;-80
2022/04/18 08:08:34;;;;;;;2.20;1.85;;;;;;;29.70;12.76;100114.63;4753125;30;20063;-81
2022/04/18 08:11:31;;;;;;;3.40;1.40;;;;;;;31.55;11.72;100136.13;4769227;30;20088;-81
2022/04/18 08:14:00;;;;;;;3.78;1.20;;;;;;;32.40;10.59;100173.13;4763268;30;20039;-82
2022/04/18 08:16:48;;;;;;;6.63;1.30;;;;;;;33.00;10.13;100121.53;4768373;30;20058;-82
2022/04/18 08:20:07;;;;;;;3.33;1.00;;;;;;;33.40;10.41;100167.13;4760587;30;20082;-81
2022/04/18 08:22:33;;;;;;;3.53;1.50;;;;;;;32.24;10.02;100136.03;4763645;30;20319;-81
2022/04/18 08:25:24;;;;;;;4.45;1.50;;;;;;;31.93;10.08;100198.97;4770713;30;20048;-80
2022/04/18 08:28:17;;;;;;;3.72;1.13;;;;;;;30.79;10.47;100121.41;4772198;30;20056;-84
2022/04/18 08:30:46;;;;;;;4.80;1.40;;;;;;;30.63;10.30;100189.91;4763796;30;20529;-82
2022/04/18 08:33:39;;;;;;;2.72;1.20;;;;;;;30.50;10.82;100213.41;4752190;30;20082;-85
2022/04/18 08:36:05;;;;;;;1.63;1.40;;;;;;;28.39;11.26;100219.72;4750944;30;20079;-84
2022/04/18 08:38:32;;;;;;;12.77;1.55;;;;;;;27.21;11.82;100228.41;4764237;30;20383;-80
2022/04/18 08:41:21;;;;;;;5.63;1.63;;;;;;;27.47;12.00;100202.47;4768839;30;20071;-81
2022/04/18 08:43:49;;;;;;;4.43;1.60;;;;;;;27.94;11.85;100207.91;4750669;30;20051;-82
2022/04/18 08:46:17;;;;;;;1.35;1.25;;;;;;;28.17;11.73;100189.28;4753825;30;20074;-83
2022/04/18 08:54:15;;;;;;;12.73;2.35;;;;;;;27.36;12.06;100224.59;4766688;29;20111;-82
2022/04/18 08:56:43;;;;;;;10.75;2.17;;;;;;;25.98;12.66;100223.44;4773974;30;20077;-82
2022/04/18 08:59:13;;;;;;;3.92;1.40;;;;;;;26.64;12.22;100222.56;4777213;30;20039;-82
2022/04/18 09:01:50;;;;;;;2.40;1.48;;;;;;;26.64;12.83;100201.22;4788613;30;20043;-84
2022/04/18 09:04:21;;;;;;;3.50;1.67;;;;;;;27.13;12.00;100169.34;4745752;30;20097;-82
2022/04/18 09:06:52;;;;;;;3.53;1.63;;;;;;;27.27;11.96;100165.66;4766526;30;20077;-79
2022/04/18 09:09:28;;;;;;;5.20;2.00;;;;;;;28.25;12.16;100202.06;4768126;30;20197;-82
2022/04/18 09:12:00;;;;;;;3.72;1.55;;;;;;;28.40;11.35;100186.63;4766073;30;20121;-81
2022/04/18 09:14:35;;;;;;;2.75;1.63;;;;;;;29.41;11.27;100200.13;4765407;30;20550;-82
2022/04/18 09:17:01;;;;;;;1.80;1.60;;;;;;;30.05;11.00;100177.84;4769888;30;20056;-83
2022/04/18 09:19:46;;;;;;;2.47;1.40;;;;;;;30.85;11.22;100161.16;4767737;30;20512;-81
2022/04/18 09:22:15;;;;;;;8.88;1.73;;;;;;;30.60;11.00;100141.00;4767145;30;20117;-83
2022/04/18 09:24:54;;;;;;;2.40;1.48;;;;;;;30.11;10.81;100113.94;4751555;30;20512;-84
2022/04/18 09:27:32;;;;;;;2.83;1.30;;;;;;;30.32;10.32;100162.19;4768567;30;20078;-83
2022/04/18 09:30:11;;;;;;;5.78;1.60;;;;;;;32.09;9.95;100174.19;4745508;30;20444;-85
2022/04/18 09:33:07;;;;;;;3.60;2.10;;;;;;;32.65;9.81;100133.91;4768397;29;20059;-85
2022/04/18 09:35:46;;;;;;;3.80;1.58;;;;;;;33.96;9.64;100135.41;4768371;30;20059;-81
2022/04/18 09:38:17;;;;;;;5.63;1.83;;;;;;;33.02;9.16;100124.91;4761394;30;20444;-81
2022/04/18 09:41:02;;;;;;;3.58;1.80;;;;;;;31.37;9.00;100125.22;4787579;29;20065;-83
2022/04/18 09:43:41;;;;;;;4.13;2.08;;;;;;;31.25;10.34;100167.50;4765631;30;20123;-83
2022/04/18 09:46:09;;;;;;;3.75;1.90;;;;;;;32.28;10.60;100172.47;4766371;30;20044;-81
2022/04/18 09:48:44;;;;;;;5.10;2.00;;;;;;;33.21;9.75;100171.63;4768399;30;20056;-83
2022/04/18 09:51:24;;;;;;;4.72;1.92;;;;;;;32.50;9.40;100140.78;4768491;30;20050;-83
2022/04/18 09:54:01;;;;;;;4.57;2.45;;;;;;;31.91;9.37;100160.59;4752548;30;20565;-83
2022/04/18 09:56:27;;;;;;;4.43;2.53;;;;;;;31.62;9.72;100153.38;4769699;30;20066;-81
2022/04/18 09:58:58;;;;;;;5.78;2.53;;;;;;;31.05;9.57;100076.09;4769323;30;20056;-80
2022/04/18 10:01:25;;;;;;;2.67;2.05;;;;;;;30.36;10.13;100164.47;4758184;30;20213;-84
2022/04/18 10:03:52;;;;;;;3.28;2.20;;;;;;;30.52;10.64;100160.47;4770041;30;20047;-81
2022/04/18 10:06:20;;;;;;;10.40;2.63;;;;;;;31.36;10.38;100070.59;4755106;30;20044;-82
2022/04/18 10:08:46;;;;;;;4.75;2.10;;;;;;;32.91;9.73;100144.00;4750817;30;20051;-84
2022/04/18 10:11:15;;;;;;;5.10;2.15;;;;;;;32.36;9.65;100153.72;4754755;30;20068;-82
2022/04/18 10:13:42;;;;;;;4.75;2.30;;;;;;;31.69;9.92;100036.19;4769516;30;20055;-82
2022/04/18 10:16:08;;;;;;;1.83;1.73;;;;;;;31.35;9.94;100149.53;4754580;30;20796;-84
2022/04/18 10:18:42;;;;;;;2.80;1.73;;;;;;;29.55;10.43;100119.47;4765456;30;20166;-83
2022/04/18 10:21:30;;;;;;;2.20;1.75;;;;;;;29.54;10.91;100136.53;4770340;30;20047;-82
2022/04/18 10:23:55;;;;;;;2.83;1.70;;;;;;;29.76;10.79;100148.94;4772717;30;20417;-81
2022/04/18 10:26:41;;;;;;;2.72;1.67;;;;;;;30.40;9.82;100110.53;4782408;30;20043;-82
2022/04/18 10:29:13;;;;;;;3.28;2.10;;;;;;;30.82;10.78;100139.94;4778978;30;20054;-82
2022/04/18 10:31:41;;;;;;;1.92;1.73;;;;;;;30.99;10.45;100097.31;4779147;30;20043;-82
2022/04/18 10:34:13;;;;;;;2.15;1.80;;;;;;;31.15;10.19;100086.03;4749125;30;20191;-85
2022/04/18 10:36:47;;;;;;;3.60;1.80;;;;;;;29.78;10.61;100123.84;4756415;30;20124;-80
2022/04/18 10:39:16;;;;;;;3.05;1.67;;;;;;;27.76;11.52;100124.63;4770040;30;20069;-82
2022/04/18 10:41:47;;;;;;;4.60;2.13;;;;;;;26.21;12.09;100142.84;4771073;30;20083;-84
2022/04/18 10:44:13;;;;;;;3.17;1.83;;;;;;;24.41;12.95;100154.38;4752060;30;20059;-82
2022/04/18 10:47:03;;;;;;;2.85;1.77;;;;;;;23.31;13.84;100153.66;4754057;30;20051;-84
2022/04/18 10:49:33;;;;;;;5.18;2.08;;;;;;;22.32;14.45;100146.53;4780663;30;20051;-81
2022/04/18 10:52:09;;;;;;;3.30;1.70;;;;;;;21.74;15.18;100155.66;4760807;30;20050;-81
2022/04/18 10:54:39;;;;;;;4.18;1.60;;;;;;;21.11;15.35;100155.13;4775600;30;20048;-81
2022/04/18 10:57:11;;;;;;;2.55;1.50;;;;;;;20.38;15.76;100146.94;4779969;30;20276;-81
2022/04/18 10:59:45;;;;;;;3.85;1.65;;;;;;;19.84;15.93;100153.59;4780345;30;20032;-79
2022/04/18 11:02:37;;;;;;;1.70;1.60;;;;;;;19.35;16.21;100143.28;4780595;30;20082;-82
2022/04/18 11:05:05;;;;;;;4.72;1.58;;;;;;;18.59;16.29;100079.38;4765105;30;20032;-80
2022/04/18 11:07:43;;;;;;;3.75;1.20;;;;;;;18.58;17.18;100085.56;4765237;30;20040;-82
2022/04/18 11:10:23;;;;;;;2.10;1.30;;;;;;;18.32;17.74;100133.03;4761559;30;20098;-82
2022/04/18 11:12:50;;;;;;;4.15;1.65;;;;;;;17.97;17.78;100100.88;4781815;30;20111;-80
2022/04/18 11:15:17;;;;;;;5.28;1.80;;;;;;;17.25;18.36;100133.06;4763549;30;20047;-80
2022/04/18 11:17:46;;;;;;;3.63;1.33;;;;;;;16.38;19.11;100117.19;4785334;29;20048;-83
2022/04/18 11:20:37;;;;;;;2.90;1.75;;;;;;;16.45;19.58;100138.88;4771737;29;20081;-81
2022/04/18 11:23:25;;;;;;;;;;;;;;;16.40;19.73;100149.50;4764137;30;20154;-82
2022/04/18 11:25:55;;;;;;;2.35;1.25;;;;;;;15.63;19.97;100057.91;4778244;29;19921;-83
2022/04/18 11:28:23;;;;;;;2.17;1.20;;;;;;;16.14;19.62;100135.31;4783665;30;20040;-81
2022/04/18 11:30:50;;;;;;;4.35;1.88;;;;;;;15.93;19.69;100148.09;4773853;30;20054;-83
2022/04/18 11:33:16;;;;;;;2.30;1.23;;;;;;;15.39;20.19;100091.69;4779366;30;20124;-82
2022/04/18 11:35:42;;;;;;;6.50;1.60;;;;;;;14.95;20.08;100049.03;4779370;29;20107;-81
2022/04/18 11:38:10;;;;;;;2.10;1.25;;;;;;;15.01;20.42;100069.84;4774870;30;20051;-82
2022/04/18 11:40:42;;;;;;;1.73;1.33;;;;;;;15.12;21.21;100093.19;4779086;30;20077;-83
2022/04/18 11:43:15;;;;;;;4.63;1.77;;;;;;;15.11;21.09;100086.25;4777968;30;20391;-81
2022/04/18 11:45:41;;;;;;;6.50;1.83;;;;;;;14.97;21.21;100104.91;4777262;30;20413;-81
2022/04/18 11:48:13;;;;;;;2.15;1.30;;;;;;;15.06;21.52;100123.03;4780212;30;20058;-81
2022/04/18 11:50:43;;;;;;;2.05;1.50;;;;;;;14.20;21.25;100019.19;4779619;30;20072;-82
2022/04/18 11:53:11;;;;;;;2.65;1.48;;;;;;;13.73;21.37;100028.81;4783688;30;20470;-82
2022/04/18 11:55:49;;;;;;;3.38;1.50;;;;;;;13.58;22.08;100043.00;4777015;30;20107;-83
2022/04/18 11:58:21;;;;;;;4.63;1.98;;;;;;;12.73;22.51;99930.28;4783086;30;20067;-83
2022/04/18 12:09:19;;;;;;;3.70;1.70;;;;;;;12.74;23.96;100052.97;4780943;30;20112;-82
2022/04/18 12:11:45;;;;;;;5.63;3.97;;;;;;;12.80;23.34;100041.59;4781876;30;20094;-82
2022/04/18 12:14:11;;;;;;;9.70;6.15;;;;;;;12.64;23.78;99997.44;4780006;30;20063;-82
2022/04/18 12:16:39;;;;;;;5.30;3.00;;;;;;;12.79;23.89;100019.84;4779513;30;20059;-82
2022/04/18 12:19:06;;;;;;;5.65;1.63;;;;;;;13.21;23.78;100108.03;4750090;30;20039;-83
2022/04/18 12:21:33;;;;;;;3.63;1.50;;;;;;;12.91;24.16;100104.09;4763843;30;20434;-81
2022/04/18 12:24:00;;;;;;;2.67;1.75;;;;;;;12.29;24.79;100037.88;4772925;30;20051;-82